createdAt,value
2023-02-08T00:00:46.416Z,10.18
2023-02-08T00:03:31.980Z,9.13
2023-02-08T00:06:18.219Z,8.80
2023-02-08T00:09:03.830Z,7.28
2023-02-08T00:11:49.562Z,8.70
2023-02-08T00:14:34.860Z,7.95
2023-02-08T00:17:20.543Z,6.18
2023-02-08T00:20:06.894Z,6.43
2023-02-08T00:22:53.428Z,5.93
2023-02-08T00:25:40.550Z,5.32
2023-02-08T00:28:26.886Z,5.47
2023-02-08T00:31:12.440Z,5.90
2023-02-08T00:34:00.003Z,5.00
2023-02-08T00:36:45.488Z,5.50
2023-02-08T00:39:31.797Z,5.53
2023-02-08T00:42:17.117Z,5.35
2023-02-08T00:45:02.382Z,5.82
2023-02-08T00:47:47.939Z,6.30
2023-02-08T00:50:33.249Z,5.95
2023-02-08T00:53:18.769Z,4.88
2023-02-08T00:56:04.712Z,4.45
2023-02-08T00:58:51.123Z,5.32
2023-02-08T01:01:37.385Z,4.60
2023-02-08T01:04:23.073Z,3.60
2023-02-08T01:07:08.866Z,5.65
2023-02-08T01:09:56.740Z,5.15
2023-02-08T01:12:42.617Z,4.28
2023-02-08T01:15:28.588Z,4.38
2023-02-08T01:18:14.275Z,4.32
2023-02-08T01:21:06.077Z,4.90
2023-02-08T01:23:51.835Z,4.00
2023-02-08T01:26:38.184Z,4.18
2023-02-08T01:29:25.915Z,4.53
2023-02-08T01:32:11.778Z,4.72
2023-02-08T01:34:57.190Z,4.65
2023-02-08T01:37:42.948Z,3.88
2023-02-08T01:40:29.053Z,4.72
2023-02-08T01:43:32.223Z,4.53
2023-02-08T01:46:21.180Z,5.15
2023-02-08T01:49:29.867Z,4.47
2023-02-08T01:52:19.148Z,4.78
2023-02-08T01:55:25.687Z,5.03
2023-02-08T01:58:12.816Z,4.20
2023-02-08T02:01:02.545Z,4.72
2023-02-08T02:03:48.616Z,3.63
2023-02-08T02:06:39.460Z,4.70
2023-02-08T02:09:31.536Z,5.03
2023-02-08T02:12:18.932Z,4.68
2023-02-08T02:15:05.667Z,5.03
2023-02-08T02:17:51.114Z,5.03
2023-02-08T02:21:03.798Z,3.17
2023-02-08T02:24:04.065Z,3.33
2023-02-08T02:27:04.868Z,3.88
2023-02-08T02:30:00.744Z,5.20
2023-02-08T02:33:10.618Z,4.32
2023-02-08T02:36:16.111Z,4.43
2023-02-08T02:39:25.165Z,4.43
2023-02-08T02:42:52.653Z,3.53
2023-02-08T02:45:56.905Z,4.93
2023-02-08T02:48:50.405Z,4.05
2023-02-08T02:52:02.253Z,5.55
2023-02-08T02:54:53.059Z,5.85
2023-02-08T02:57:41.761Z,4.72
2023-02-08T03:00:31.133Z,4.95
2023-02-08T03:03:23.109Z,4.82
2023-02-08T03:06:14.387Z,4.28
2023-02-08T03:09:26.652Z,5.13
2023-02-08T03:12:31.457Z,4.85
2023-02-08T03:15:41.777Z,5.95
2023-02-08T03:19:17.752Z,4.72
2023-02-08T03:22:13.389Z,6.18
2023-02-08T03:25:24.204Z,5.78
2023-02-08T03:28:31.460Z,5.47
2023-02-08T03:31:40.022Z,5.22
2023-02-08T03:34:53.188Z,5.07
2023-02-08T03:37:47.178Z,5.45
2023-02-08T03:40:37.894Z,6.28
2023-02-08T03:43:33.657Z,5.90
2023-02-08T03:46:27.591Z,6.18
2023-02-08T03:49:23.785Z,6.22
2023-02-08T03:52:11.169Z,11.32
2023-02-08T03:55:12.768Z,12.27
2023-02-08T03:58:40.683Z,15.05
2023-02-08T04:01:51.577Z,13.15
2023-02-08T04:04:42.378Z,7.28
2023-02-08T04:07:27.923Z,6.03
2023-02-08T04:10:13.714Z,6.78
2023-02-08T04:12:59.716Z,5.80
2023-02-08T04:15:45.017Z,5.35
2023-02-08T04:18:31.416Z,5.93
2023-02-08T04:21:17.258Z,5.05
2023-02-08T04:24:03.530Z,5.00
2023-02-08T04:26:50.092Z,5.13
2023-02-08T04:29:35.644Z,5.57
2023-02-08T04:32:21.332Z,4.88
2023-02-08T04:35:06.833Z,5.20
2023-02-08T04:37:52.529Z,4.90
2023-02-08T04:40:38.337Z,5.70
2023-02-08T04:43:23.940Z,6.85
2023-02-08T04:46:09.339Z,8.48
2023-02-08T04:48:54.962Z,12.18
2023-02-08T04:51:43.213Z,13.02
2023-02-08T04:54:28.934Z,9.32
2023-02-08T04:57:15.351Z,7.72
2023-02-08T05:00:00.820Z,5.93
2023-02-08T05:02:46.383Z,5.53
2023-02-08T05:05:32.949Z,6.00
2023-02-08T05:08:18.511Z,6.07
2023-02-08T05:11:10.819Z,5.90
2023-02-08T05:14:00.904Z,5.30
2023-02-08T05:16:46.509Z,7.03
2023-02-08T05:19:32.354Z,6.05
2023-02-08T05:22:18.070Z,7.13
2023-02-08T05:25:03.894Z,7.53
2023-02-08T05:27:50.264Z,8.57
2023-02-08T05:30:38.610Z,7.28
2023-02-08T05:33:24.335Z,7.47
2023-02-08T05:36:10.484Z,12.48
2023-02-08T05:38:56.180Z,10.20
2023-02-08T05:41:41.759Z,10.35
2023-02-08T05:44:27.217Z,13.82
2023-02-08T05:47:13.135Z,13.57
2023-02-08T05:49:59.229Z,9.43
2023-02-08T05:52:45.362Z,8.90
2023-02-08T05:55:30.943Z,7.90
2023-02-08T05:58:17.114Z,9.77
2023-02-08T06:01:11.102Z,10.10
2023-02-08T06:03:59.769Z,11.25
2023-02-08T06:06:45.685Z,9.63
2023-02-08T06:09:31.478Z,7.70
2023-02-08T06:12:17.583Z,8.25
2023-02-08T06:15:03.158Z,13.88
2023-02-08T06:17:48.600Z,12.68
2023-02-08T06:20:34.066Z,9.90
2023-02-08T06:23:19.388Z,9.30
2023-02-08T06:26:05.690Z,24.48
2023-02-08T06:28:52.395Z,32.03
2023-02-08T06:31:38.047Z,20.85
2023-02-08T06:34:24.024Z,16.55
2023-02-08T06:37:09.700Z,16.70
2023-02-08T06:39:55.162Z,9.68
2023-02-08T06:42:40.659Z,7.95
2023-02-08T06:45:27.464Z,6.72
2023-02-08T06:48:13.740Z,12.60
2023-02-08T06:51:01.136Z,12.35
2023-02-08T06:53:46.818Z,11.10
2023-02-08T06:56:32.487Z,10.77
2023-02-08T06:59:18.082Z,9.73
2023-02-08T07:02:03.688Z,9.75
2023-02-08T07:04:53.734Z,15.73
2023-02-08T07:07:39.931Z,14.05
2023-02-08T07:10:25.943Z,12.02
2023-02-08T07:13:11.983Z,7.22
2023-02-08T07:15:58.149Z,8.10
2023-02-08T07:18:44.699Z,7.63
2023-02-08T07:21:30.253Z,6.95
2023-02-08T07:24:15.753Z,10.30
2023-02-08T07:27:01.797Z,8.43
2023-02-08T07:29:47.273Z,7.10
2023-02-08T07:32:34.690Z,8.85
2023-02-08T07:35:20.129Z,8.80
2023-02-08T07:38:05.478Z,23.30
2023-02-08T07:40:51.002Z,57.30
2023-02-08T07:43:37.641Z,13.05
2023-02-08T07:46:39.520Z,9.25
2023-02-08T07:49:27.131Z,12.35
2023-02-08T07:52:12.693Z,14.52
2023-02-08T07:54:58.972Z,14.25
2023-02-08T07:57:49.233Z,8.00
2023-02-08T08:00:34.744Z,7.60
2023-02-08T08:03:20.593Z,7.43
2023-02-08T08:06:06.997Z,11.68
2023-02-08T08:08:52.845Z,16.05
2023-02-08T08:11:38.455Z,10.18
2023-02-08T08:14:24.061Z,13.02
2023-02-08T08:17:12.301Z,15.52
2023-02-08T08:19:58.207Z,14.10
2023-02-08T08:22:43.574Z,16.38
2023-02-08T08:25:29.280Z,11.30
2023-02-08T08:28:15.620Z,18.15
2023-02-08T08:31:02.179Z,15.75
2023-02-08T08:33:48.526Z,15.77
2023-02-08T08:36:36.925Z,20.23
2023-02-08T08:39:23.904Z,15.23
2023-02-08T08:42:09.298Z,11.18
2023-02-08T08:44:56.137Z,7.32
2023-02-08T08:47:42.864Z,5.38
2023-02-08T08:50:28.720Z,5.45
2023-02-08T08:53:14.865Z,5.97
2023-02-08T08:56:01.348Z,10.63
2023-02-08T08:58:47.072Z,10.48
2023-02-08T09:01:34.415Z,10.88
2023-02-08T09:04:22.872Z,6.47
2023-02-08T09:07:10.680Z,9.25
2023-02-08T09:09:56.521Z,5.47
2023-02-08T09:12:42.222Z,4.60
2023-02-08T09:15:28.204Z,4.15
2023-02-08T09:18:14.212Z,4.95
2023-02-08T09:21:15.745Z,4.40
2023-02-08T09:24:02.789Z,4.20
2023-02-08T09:26:49.913Z,3.63
2023-02-08T09:29:39.640Z,5.60
2023-02-08T09:32:30.880Z,5.20
2023-02-08T09:35:16.816Z,4.80
2023-02-08T09:38:04.621Z,4.65
2023-02-08T09:41:22.675Z,7.72
2023-02-08T09:44:30.512Z,6.22
2023-02-08T09:47:23.272Z,7.90
2023-02-08T09:50:21.189Z,4.85
2023-02-08T09:53:21.542Z,5.63
2023-02-08T09:56:12.761Z,5.90
2023-02-08T09:59:00.794Z,12.63
2023-02-08T10:01:49.484Z,5.50
2023-02-08T10:05:07.883Z,4.38
2023-02-08T10:07:54.838Z,4.32
2023-02-08T10:11:06.792Z,11.00
2023-02-08T10:14:00.080Z,6.47
2023-02-08T10:16:59.506Z,6.78
2023-02-08T10:19:51.162Z,4.93
2023-02-08T10:22:57.026Z,7.35
2023-02-08T10:26:14.486Z,9.40
2023-02-08T10:29:30.922Z,6.82
2023-02-08T10:32:37.346Z,8.90
2023-02-08T10:35:37.358Z,5.28
2023-02-08T10:38:45.271Z,5.10
2023-02-08T10:41:37.344Z,5.63
2023-02-08T10:44:48.113Z,5.50
2023-02-08T10:47:46.320Z,5.57
2023-02-08T10:50:40.243Z,4.43
2023-02-08T10:53:25.684Z,6.60
2023-02-08T10:56:30.850Z,5.10
2023-02-08T10:59:24.313Z,8.52
2023-02-08T11:02:22.738Z,6.28
2023-02-08T11:05:21.102Z,9.23
2023-02-08T11:11:04.268Z,6.78
2023-02-08T11:14:07.425Z,6.53
2023-02-08T11:16:56.930Z,6.68
2023-02-08T11:19:46.381Z,7.43
2023-02-08T11:22:38.295Z,5.28
2023-02-08T11:25:37.970Z,6.45
2023-02-08T11:28:28.460Z,5.35
2023-02-08T11:31:21.143Z,5.75
2023-02-08T11:34:11.714Z,6.90
2023-02-08T11:37:14.189Z,6.35
2023-02-08T11:40:03.845Z,7.00
2023-02-08T11:42:52.032Z,7.60
2023-02-08T11:45:37.821Z,6.20
2023-02-08T11:48:38.422Z,7.45
2023-02-08T11:51:30.593Z,7.30
2023-02-08T11:54:42.539Z,6.88
2023-02-08T11:57:28.358Z,6.97
2023-02-08T12:00:23.497Z,6.80
2023-02-08T12:03:18.507Z,11.52
2023-02-08T12:06:55.088Z,9.48
2023-02-08T12:10:08.179Z,7.93
2023-02-08T12:13:21.865Z,6.88
2023-02-08T12:16:26.076Z,5.25
2023-02-08T12:19:20.687Z,4.50
2023-02-08T12:22:14.034Z,5.47
2023-02-08T12:25:24.632Z,4.65
2023-02-08T12:28:20.095Z,5.45
2023-02-08T12:31:38.617Z,3.92
2023-02-08T12:34:42.635Z,4.32
2023-02-08T12:38:04.356Z,3.55
2023-02-08T12:41:19.555Z,6.72
2023-02-08T12:44:23.843Z,5.10
2023-02-08T12:47:16.838Z,5.68
2023-02-08T12:50:02.354Z,5.50
2023-02-08T12:52:57.379Z,4.13
2023-02-08T12:55:44.577Z,4.60
2023-02-08T12:58:38.752Z,3.80
2023-02-08T13:01:44.861Z,7.40
2023-02-08T13:04:38.693Z,5.95
2023-02-08T13:07:29.698Z,6.55
2023-02-08T13:10:34.542Z,7.68
2023-02-08T13:13:25.082Z,6.30
2023-02-08T13:16:18.087Z,6.60
2023-02-08T13:19:23.790Z,5.45
2023-02-08T13:22:12.827Z,4.70
2023-02-08T13:25:07.113Z,5.03
2023-02-08T13:27:54.118Z,7.00
2023-02-08T13:30:40.968Z,5.20
2023-02-08T13:33:55.779Z,4.85
2023-02-08T13:36:58.159Z,4.35
2023-02-08T13:39:46.614Z,3.60
2023-02-08T13:42:43.127Z,5.28
2023-02-08T13:45:42.064Z,4.72
2023-02-08T13:48:28.181Z,5.22
2023-02-08T13:51:33.155Z,4.80
2023-02-08T13:54:19.210Z,4.03
2023-02-08T13:57:48.406Z,4.00
2023-02-08T14:00:36.813Z,3.97
2023-02-08T14:03:27.996Z,5.47
2023-02-08T14:06:23.873Z,6.32
2023-02-08T14:09:28.816Z,4.57
2023-02-08T14:12:26.746Z,4.90
2023-02-08T14:15:15.769Z,5.13
2023-02-08T14:18:02.490Z,5.78
2023-02-08T14:21:02.045Z,6.07
2023-02-08T14:24:00.738Z,10.45
2023-02-08T14:26:46.460Z,14.75
2023-02-08T14:29:33.062Z,10.02
2023-02-08T14:32:30.581Z,9.25
2023-02-08T14:35:18.353Z,8.38
2023-02-08T14:38:19.280Z,9.27
2023-02-08T14:41:05.324Z,8.13
2023-02-08T14:43:50.943Z,8.70
2023-02-08T14:46:40.873Z,7.13
2023-02-08T14:49:27.731Z,9.10
2023-02-08T14:52:22.029Z,7.38
2023-02-08T14:55:19.938Z,8.85
2023-02-08T14:58:09.125Z,11.75
2023-02-08T15:00:56.456Z,12.02
2023-02-08T15:03:43.482Z,12.80
2023-02-08T15:06:37.833Z,17.25
2023-02-08T15:09:38.110Z,20.70
2023-02-08T15:12:35.803Z,21.80
2023-02-08T15:15:21.532Z,17.85
2023-02-08T15:18:18.982Z,17.77
2023-02-08T15:21:08.527Z,16.80
2023-02-08T15:24:15.270Z,15.43
2023-02-08T15:27:00.993Z,24.63
2023-02-08T15:29:48.679Z,19.60
2023-02-08T15:32:35.018Z,23.90
2023-02-08T15:35:22.939Z,27.25
2023-02-08T15:38:19.163Z,26.60
2023-02-08T15:41:09.580Z,25.55
2023-02-08T15:44:22.825Z,21.60
2023-02-08T15:47:17.406Z,38.75
2023-02-08T15:50:06.722Z,25.38
2023-02-08T15:52:58.789Z,25.58
2023-02-08T15:55:50.130Z,41.50
2023-02-08T15:58:42.043Z,30.63
2023-02-08T16:01:31.934Z,26.30
2023-02-08T16:04:18.042Z,21.27
2023-02-08T16:07:03.748Z,24.38
2023-02-08T16:09:49.609Z,36.25
2023-02-08T16:12:38.315Z,38.33
2023-02-08T16:15:40.067Z,38.67
2023-02-08T16:18:47.080Z,33.65
2023-02-08T16:21:39.067Z,35.22
2023-02-08T16:24:27.983Z,33.70
2023-02-08T16:27:33.845Z,36.35
2023-02-08T16:30:24.146Z,38.33
2023-02-08T16:33:10.042Z,35.13
2023-02-08T16:36:07.320Z,32.00
2023-02-08T16:39:18.648Z,42.08
2023-02-08T16:42:31.883Z,70.50
2023-02-08T16:45:24.850Z,39.35
2023-02-08T16:48:36.124Z,28.00
2023-02-08T16:51:34.803Z,15.30
2023-02-08T16:54:26.508Z,9.45
2023-02-08T16:57:17.695Z,11.85
2023-02-08T17:00:12.804Z,19.00
2023-02-08T17:03:09.228Z,25.45
2023-02-08T17:05:57.788Z,27.45
2023-02-08T17:08:43.755Z,14.80
2023-02-08T17:11:29.864Z,11.20
2023-02-08T17:14:15.796Z,10.40
2023-02-08T17:17:01.540Z,13.00
2023-02-08T17:19:56.111Z,16.95
2023-02-08T17:23:15.905Z,19.55
2023-02-08T17:26:01.795Z,18.65
2023-02-08T17:28:50.185Z,23.77
2023-02-08T17:31:36.890Z,22.38
2023-02-08T17:34:24.053Z,29.55
2023-02-08T17:37:13.486Z,26.27
2023-02-08T17:40:05.847Z,30.25
2023-02-08T17:42:55.959Z,30.93
2023-02-08T17:45:44.753Z,29.33
2023-02-08T17:48:31.854Z,20.98
2023-02-08T17:51:26.684Z,26.65
2023-02-08T17:54:16.699Z,29.80
2023-02-08T17:57:05.193Z,28.08
2023-02-08T18:00:10.485Z,26.67
2023-02-08T18:03:26.980Z,24.95
2023-02-08T18:06:21.387Z,21.00
2023-02-08T18:09:11.741Z,19.98
2023-02-08T18:12:02.195Z,19.88
2023-02-08T18:14:49.606Z,41.63
2023-02-08T18:17:37.198Z,28.30
2023-02-08T18:20:26.635Z,41.20
2023-02-08T18:23:14.718Z,35.05
2023-02-08T18:26:09.660Z,48.88
2023-02-08T18:28:57.972Z,37.65
2023-02-08T18:31:44.952Z,47.03
2023-02-08T18:34:53.418Z,42.92
2023-02-08T18:37:51.244Z,41.07
2023-02-08T18:40:48.910Z,41.40
2023-02-08T18:43:37.436Z,38.47
2023-02-08T18:46:29.098Z,38.20
2023-02-08T18:49:17.719Z,41.08
2023-02-08T18:52:33.411Z,43.78
2023-02-08T18:55:21.189Z,41.65
